Time;durP1;ratioP1;P1;durP2;ratioP2;P2;SDS_P1;SDS_P2;PMS_P1;PMS_P2;Temp;Humidity;BMP_temperature;BMP_pressure;BME280_temperature;BME280_humidity;BME280_pressure;Samples;Min_cycle;Max_cycle;Signal;HPM_P1;HPM_P2
2021/08/13 00:02:24;;;;;;;5.47;3.17;;;;;;;18.65;56.11;101010.35;1692803;83;21120;-68
2021/08/13 00:04:52;;;;;;;6.90;3.30;;;;;;;18.58;56.06;101009.33;1676426;84;21155;-67
2021/08/13 00:07:19;;;;;;;9.65;3.37;;;;;;;18.52;56.09;101014.78;1674496;83;21153;-67
2021/08/13 00:09:45;;;;;;;8.53;3.30;;;;;;;18.48;56.24;101008.11;1653092;84;21020;-71
2021/08/13 00:12:11;;;;;;;7.97;3.80;;;;;;;18.45;56.29;101009.76;1681429;84;21102;-70
2021/08/13 00:14:38;;;;;;;6.42;3.35;;;;;;;18.42;56.48;101004.74;1685441;83;21063;-69
2021/08/13 00:17:07;;;;;;;6.60;3.50;;;;;;;18.38;56.76;101008.73;1676226;84;21116;-67
2021/08/13 00:19:33;;;;;;;7.25;3.27;;;;;;;18.31;57.02;101009.86;1658037;83;21459;-69
2021/08/13 00:22:00;;;;;;;7.10;3.50;;;;;;;18.23;57.16;101012.48;1676862;83;21471;-67
2021/08/13 00:24:27;;;;;;;6.55;3.60;;;;;;;18.15;57.48;101017.25;1675468;84;21113;-67
2021/08/13 00:26:53;;;;;;;7.33;3.33;;;;;;;18.09;57.76;101014.38;1676190;83;21023;-68
2021/08/13 00:29:20;;;;;;;6.95;3.52;;;;;;;18.07;57.87;101012.37;1701807;83;21106;-69
2021/08/13 00:31:47;;;;;;;9.98;3.40;;;;;;;18.10;57.79;101012.89;1704683;83;21062;-68
2021/08/13 00:34:14;;;;;;;7.47;3.00;;;;;;;18.12;57.89;101014.06;1694152;83;21522;-70
2021/08/13 00:36:41;;;;;;;8.20;3.05;;;;;;;18.08;57.74;101011.39;1679679;83;21047;-69
2021/08/13 00:39:08;;;;;;;6.78;3.75;;;;;;;18.05;57.79;101014.36;1674884;83;21019;-67
2021/08/13 00:41:35;;;;;;;6.03;3.08;;;;;;;17.99;57.81;101007.34;1691025;83;21008;-67
2021/08/13 00:44:03;;;;;;;7.03;3.40;;;;;;;17.94;57.99;101013.63;1694755;83;21277;-68
2021/08/13 00:46:30;;;;;;;5.37;2.95;;;;;;;17.92;58.33;101013.42;1676723;83;21085;-67
2021/08/13 00:49:01;;;;;;;5.70;2.83;;;;;;;17.88;58.41;101022.22;1678214;83;21130;-67
2021/08/13 00:51:29;;;;;;;5.78;3.12;;;;;;;17.86;58.54;101018.86;1670340;83;21047;-68
2021/08/13 00:53:57;;;;;;;7.65;3.37;;;;;;;17.87;58.56;101021.91;1683880;83;21098;-70
2021/08/13 00:56:26;;;;;;;7.95;3.15;;;;;;;17.89;58.26;101030.56;1690408;83;21170;-69
2021/08/13 00:59:03;;;;;;;7.62;3.17;;;;;;;17.88;58.19;101026.72;1679031;83;21059;-69
2021/08/13 01:01:31;;;;;;;5.90;3.08;;;;;;;17.85;58.23;101029.16;1674507;83;21086;-68
2021/08/13 01:03:58;;;;;;;6.55;3.30;;;;;;;17.82;58.38;101037.47;1676136;84;21022;-68
2021/08/13 01:06:26;;;;;;;13.58;4.20;;;;;;;17.78;58.43;101034.26;1669447;83;21057;-68
2021/08/13 01:08:54;;;;;;;6.17;2.92;;;;;;;17.75;58.56;101042.58;1664914;84;21436;-68
2021/08/13 01:11:55;;;;;;;5.28;2.47;;;;;;;17.75;58.59;101041.25;1671121;84;21128;-68
2021/08/13 01:14:37;;;;;;;6.87;3.20;;;;;;;17.74;58.76;101054.20;1677828;85;21553;-67
2021/08/13 01:17:08;;;;;;;5.83;3.17;;;;;;;17.74;58.75;101044.88;1678259;85;21055;-71
2021/08/13 01:20:06;;;;;;;6.10;3.33;;;;;;;17.76;58.82;101038.91;1695744;84;21054;-70
2021/08/13 01:22:57;;;;;;;9.00;3.20;;;;;;;17.77;59.04;101042.39;1688522;83;22420;-67
2021/08/13 01:25:30;;;;;;;8.58;3.83;;;;;;;17.70;59.21;101041.34;1692722;83;21041;-73
2021/08/13 01:28:08;;;;;;;7.15;3.37;;;;;;;17.58;59.05;101042.91;1669067;85;21047;-68
2021/08/13 01:30:35;;;;;;;6.47;3.30;;;;;;;17.51;59.19;101051.66;1696239;83;21046;-68
2021/08/13 01:33:07;;;;;;;6.87;3.67;;;;;;;17.42;59.40;101054.23;1694808;83;21093;-67
2021/08/13 01:35:46;;;;;;;8.45;3.27;;;;;;;17.32;59.70;101058.80;1695522;83;21232;-67
2021/08/13 01:38:20;;;;;;;6.25;3.65;;;;;;;17.25;59.99;101057.73;1698812;83;21011;-68
2021/08/13 01:40:49;;;;;;;;;;;;;;;17.18;60.12;101052.64;1673425;83;21050;-72
2021/08/13 01:43:24;;;;;;;6.95;3.62;;;;;;;17.11;60.34;101058.23;1680493;83;20179;-72
2021/08/13 01:45:54;;;;;;;6.53;3.67;;;;;;;16.99;60.53;101054.94;1679877;83;21078;-67
2021/08/13 01:48:23;;;;;;;5.83;3.22;;;;;;;16.91;60.98;101053.00;1675721;83;21022;-69
2021/08/13 01:50:52;;;;;;;5.90;3.22;;;;;;;16.87;61.19;101056.45;1629216;84;21118;-68
2021/08/13 01:53:21;;;;;;;7.08;3.47;;;;;;;16.89;61.04;101059.83;1648716;84;21542;-70
2021/08/13 01:55:51;;;;;;;7.72;4.10;;;;;;;16.87;61.06;101068.41;1682952;84;21082;-67
2021/08/13 01:58:19;;;;;;;7.45;3.87;;;;;;;16.83;61.18;101076.32;1679312;84;22550;-69
2021/08/13 02:00:48;;;;;;;6.10;3.15;;;;;;;16.80;61.17;101077.11;1678890;84;22451;-71
2021/08/13 02:03:15;;;;;;;6.95;2.87;;;;;;;16.75;61.32;101081.53;1658581;84;21094;-69
2021/08/13 02:05:42;;;;;;;8.48;4.40;;;;;;;16.72;61.50;101085.80;1678683;84;21524;-68
2021/08/13 02:08:10;;;;;;;9.10;3.30;;;;;;;16.68;61.53;101086.59;1676727;83;21028;-69
2021/08/13 02:10:41;;;;;;;7.33;3.00;;;;;;;16.65;61.63;101084.72;1650656;85;21063;-68
2021/08/13 02:13:11;;;;;;;6.12;2.87;;;;;;;16.61;61.81;101088.16;1675183;83;21158;-68
2021/08/13 02:15:38;;;;;;;7.05;3.50;;;;;;;16.63;61.72;101094.66;1671896;83;21027;-68
2021/08/13 02:18:21;;;;;;;6.03;3.27;;;;;;;16.68;61.61;101087.91;1680905;83;21074;-68
2021/08/13 02:20:49;;;;;;;7.65;3.50;;;;;;;16.69;61.55;101096.25;1669936;83;21090;-71
2021/08/13 02:23:19;;;;;;;7.78;3.47;;;;;;;16.68;61.61;101096.39;1679565;84;21137;-69
2021/08/13 02:25:46;;;;;;;7.70;3.75;;;;;;;16.63;61.86;101098.64;1669770;84;21951;-69
2021/08/13 02:28:13;;;;;;;6.87;3.30;;;;;;;16.57;62.01;101094.73;1676431;83;21300;-70
2021/08/13 02:30:41;;;;;;;6.45;3.45;;;;;;;16.52;62.23;101096.98;1654122;83;21561;-67
2021/08/13 02:34:47;;;;;;;7.92;3.27;;;;;;;16.50;62.38;101098.95;1836162;75;22794;-60
2021/08/13 02:37:25;;;;;;;9.40;2.92;;;;;;;16.43;62.48;101106.66;1810752;78;21006;-59
2021/08/13 02:39:59;;;;;;;6.75;3.30;;;;;;;16.40;62.63;101110.92;1804299;78;21107;-60
2021/08/13 02:42:53;;;;;;;7.05;3.55;;;;;;;16.38;62.65;101112.89;1777054;78;21048;-60
2021/08/13 02:45:23;;;;;;;10.25;3.33;;;;;;;16.38;62.72;101116.88;1814092;77;21557;-60
2021/08/13 02:47:58;;;;;;;7.53;3.58;;;;;;;16.38;62.89;101119.53;1811414;78;20951;-60
2021/08/13 02:50:26;;;;;;;8.83;3.92;;;;;;;16.35;63.01;101127.28;1777630;78;21331;-60
2021/08/13 02:53:13;;;;;;;8.08;3.50;;;;;;;16.30;63.13;101126.04;1800080;78;21104;-60
2021/08/13 02:55:46;;;;;;;9.03;4.83;;;;;;;16.24;63.26;101131.91;1808103;78;20966;-60
2021/08/13 02:58:17;;;;;;;8.70;3.90;;;;;;;16.18;63.64;101128.52;1778756;78;21283;-60
2021/08/13 03:00:43;;;;;;;7.22;3.20;;;;;;;16.10;63.81;101131.36;1816460;78;21489;-60
2021/08/13 03:03:13;;;;;;;7.25;3.17;;;;;;;16.10;63.96;101127.38;1783892;78;21066;-60
2021/08/13 03:05:42;;;;;;;9.00;3.75;;;;;;;16.15;63.88;101132.27;1803467;77;21114;-59
2021/08/13 03:08:08;;;;;;;7.25;4.35;;;;;;;16.15;63.87;101127.82;1783386;78;21113;-62
2021/08/13 03:10:36;;;;;;;9.00;3.85;;;;;;;16.12;63.90;101128.09;1774396;79;21042;-63
2021/08/13 03:13:07;;;;;;;6.70;3.92;;;;;;;16.12;64.04;101125.44;1803186;78;21058;-63
2021/08/13 03:15:34;;;;;;;7.25;3.85;;;;;;;16.11;64.10;101125.08;1811839;78;21089;-59
2021/08/13 03:18:01;;;;;;;8.13;4.50;;;;;;;16.09;64.14;101124.89;1804925;78;22626;-59
2021/08/13 03:20:29;;;;;;;7.12;3.92;;;;;;;16.06;64.36;101127.32;1808809;77;21041;-59
2021/08/13 03:23:00;;;;;;;7.05;3.02;;;;;;;16.08;64.48;101129.34;1813544;78;21506;-58
2021/08/13 03:25:29;;;;;;;8.10;3.67;;;;;;;16.15;64.37;101132.27;1788839;78;21056;-58
2021/08/13 03:27:56;;;;;;;10.48;4.00;;;;;;;16.20;64.25;101133.19;1808206;78;21555;-61
2021/08/13 03:30:23;;;;;;;7.90;3.77;;;;;;;16.24;64.25;101135.42;1807524;78;21062;-59
2021/08/13 03:32:50;;;;;;;7.40;3.62;;;;;;;16.23;64.27;101134.23;1805332;78;21069;-59
2021/08/13 03:35:17;;;;;;;7.10;3.50;;;;;;;16.19;64.23;101135.48;1779449;79;21064;-58
2021/08/13 03:37:43;;;;;;;8.48;3.87;;;;;;;16.16;64.41;101133.45;1777202;79;21474;-61
2021/08/13 03:40:11;;;;;;;8.03;4.15;;;;;;;16.13;64.47;101132.41;1802109;78;21018;-57
2021/08/13 03:42:38;;;;;;;6.08;3.35;;;;;;;16.11;64.80;101130.89;1796546;77;21121;-58
2021/08/13 03:45:06;;;;;;;6.78;3.42;;;;;;;16.17;64.72;101138.27;1782390;79;20983;-59
2021/08/13 03:47:33;;;;;;;8.70;3.50;;;;;;;16.28;64.54;101139.45;1797700;79;21026;-58
2021/08/13 03:50:02;;;;;;;7.92;3.85;;;;;;;16.36;64.40;101137.44;1803479;78;21525;-58
2021/08/13 03:52:28;;;;;;;6.67;3.55;;;;;;;16.41;64.28;101138.31;1806393;78;22435;-61
2021/08/13 03:54:55;;;;;;;7.25;3.58;;;;;;;16.42;64.14;101136.84;1802142;78;21116;-62
2021/08/13 03:57:24;;;;;;;8.00;4.17;;;;;;;16.47;64.14;101143.89;1798869;78;21059;-63
2021/08/13 03:59:50;;;;;;;8.63;3.60;;;;;;;16.52;64.07;101142.14;1801926;77;21085;-62
2021/08/13 04:02:17;;;;;;;7.87;4.12;;;;;;;16.56;64.09;101144.02;1771652;78;21443;-61
2021/08/13 04:04:44;;;;;;;7.87;4.05;;;;;;;16.65;64.17;101141.84;1788062;79;21137;-63
2021/08/13 04:07:12;;;;;;;6.60;3.42;;;;;;;16.83;63.91;101156.05;1798674;78;21454;-62
2021/08/13 04:09:39;;;;;;;10.25;3.47;;;;;;;16.90;63.75;101149.20;1772972;79;21097;-61
2021/08/13 04:12:09;;;;;;;6.80;3.55;;;;;;;16.99;63.42;101153.30;1803894;78;20998;-62
2021/08/13 04:14:37;;;;;;;9.23;3.85;;;;;;;17.07;63.12;101152.08;1804974;78;21101;-62
2021/08/13 04:17:04;;;;;;;8.83;4.20;;;;;;;17.11;62.94;101151.29;1774988;78;21560;-63
2021/08/13 04:19:31;;;;;;;6.30;3.08;;;;;;;17.15;62.89;101148.20;1775526;79;21284;-62
2021/08/13 04:21:59;;;;;;;10.85;3.72;;;;;;;17.20;62.73;101150.42;1801365;78;21038;-62
2021/08/13 04:24:25;;;;;;;6.87;3.62;;;;;;;17.28;62.60;101153.16;1797745;78;21530;-60
2021/08/13 04:26:51;;;;;;;8.60;3.50;;;;;;;17.38;62.31;101149.98;1804956;78;21106;-61
2021/08/13 04:29:18;;;;;;;9.10;3.98;;;;;;;17.46;62.19;101152.70;1778743;78;21098;-61
2021/08/13 04:31:45;;;;;;;7.50;3.65;;;;;;;17.50;62.13;101158.59;1795201;78;21568;-62
2021/08/13 04:34:11;;;;;;;6.35;3.42;;;;;;;17.51;61.97;101156.25;1793280;78;21077;-63
2021/08/13 04:36:37;;;;;;;6.83;3.60;;;;;;;17.54;61.95;101161.78;1773006;78;21038;-62
2021/08/13 04:39:04;;;;;;;7.15;3.40;;;;;;;17.57;61.91;101159.66;1801432;78;21093;-62
2021/08/13 04:41:33;;;;;;;7.12;3.55;;;;;;;17.62;61.80;101162.70;1774156;78;21093;-62
2021/08/13 04:44:00;;;;;;;6.92;3.75;;;;;;;17.74;61.63;101169.98;1770347;78;21326;-63
2021/08/13 04:46:27;;;;;;;8.23;3.72;;;;;;;17.85;61.45;101170.25;1755728;78;21584;-63
2021/08/13 04:48:54;;;;;;;7.33;3.60;;;;;;;17.91;61.33;101175.01;1803316;77;21050;-63
2021/08/13 04:51:23;;;;;;;7.53;3.47;;;;;;;18.00;61.04;101171.92;1802094;78;21109;-64
2021/08/13 04:53:50;;;;;;;8.58;3.83;;;;;;;18.08;60.94;101174.66;1800221;78;21022;-62
2021/08/13 04:56:18;;;;;;;8.43;4.30;;;;;;;18.15;60.76;101178.38;1803672;78;21039;-61
2021/08/13 04:58:44;;;;;;;7.72;3.62;;;;;;;18.17;60.42;101179.09;1805760;78;20968;-62
2021/08/13 05:01:15;;;;;;;7.72;3.60;;;;;;;18.21;60.40;101174.28;1799718;78;21062;-61
2021/08/13 05:03:43;;;;;;;9.10;4.08;;;;;;;18.28;60.42;101178.00;1800358;78;21053;-62
2021/08/13 05:06:14;;;;;;;7.40;3.30;;;;;;;18.45;60.41;101184.80;1804081;77;21003;-61
2021/08/13 05:08:42;;;;;;;7.90;3.15;;;;;;;18.61;59.33;101189.40;1773683;78;21307;-62
2021/08/13 05:11:09;;;;;;;7.47;3.25;;;;;;;18.71;59.16;101191.46;1798477;78;21530;-62
2021/08/13 05:13:38;;;;;;;10.13;4.12;;;;;;;18.79;58.84;101190.19;1808553;78;21081;-62
2021/08/13 05:16:05;;;;;;;7.60;3.85;;;;;;;18.86;58.23;101187.77;1805416;77;21159;-62
2021/08/13 05:18:34;;;;;;;8.18;3.60;;;;;;;18.93;58.10;101194.16;1773981;77;21575;-61
2021/08/13 05:21:01;;;;;;;7.15;3.55;;;;;;;18.94;58.11;101191.81;1805537;78;21210;-62
2021/08/13 05:23:27;;;;;;;6.95;3.35;;;;;;;18.96;58.31;101193.81;1779944;78;21073;-60
2021/08/13 05:26:00;;;;;;;6.90;3.20;;;;;;;19.00;57.88;101187.19;1800442;78;21500;-60
2021/08/13 05:28:28;;;;;;;8.50;3.65;;;;;;;19.04;57.81;101191.20;1765387;77;21509;-59
2021/08/13 05:30:55;;;;;;;12.55;3.80;;;;;;;19.07;57.69;101195.39;1811073;78;21046;-61
2021/08/13 05:33:23;;;;;;;10.25;3.65;;;;;;;19.15;57.59;101195.44;1810220;78;22347;-61
2021/08/13 05:35:51;;;;;;;8.55;3.70;;;;;;;19.29;57.96;101195.33;1789647;79;21046;-61
2021/08/13 05:38:17;;;;;;;9.88;4.00;;;;;;;19.41;57.03;101192.70;1797007;79;20960;-60
2021/08/13 05:40:43;;;;;;;6.62;3.75;;;;;;;19.49;56.48;101191.40;1787427;77;21125;-61
2021/08/13 05:43:11;;;;;;;6.47;3.60;;;;;;;19.58;56.54;101196.77;1760535;79;21089;-61
2021/08/13 05:45:38;;;;;;;7.40;3.52;;;;;;;19.64;56.25;101194.80;1765606;79;22340;-61
2021/08/13 05:48:07;;;;;;;7.58;3.90;;;;;;;19.73;56.70;101200.98;1794129;79;21442;-60
2021/08/13 05:50:34;;;;;;;9.33;3.98;;;;;;;19.78;55.81;101199.52;1769439;78;21101;-61
2021/08/13 05:53:04;;;;;;;7.15;3.35;;;;;;;19.82;55.18;101202.69;1788298;79;21062;-61
2021/08/13 05:55:32;;;;;;;8.50;4.25;;;;;;;19.83;55.09;101215.88;1763892;79;21003;-60
2021/08/13 05:58:00;;;;;;;6.95;3.62;;;;;;;19.85;54.70;101221.06;1794620;77;21080;-63
2021/08/13 06:00:27;;;;;;;6.42;3.05;;;;;;;19.88;54.94;101221.25;1792920;78;21031;-60
2021/08/13 06:02:58;;;;;;;11.15;3.80;;;;;;;19.91;54.96;101221.75;1774572;78;21051;-64
2021/08/13 06:05:25;;;;;;;6.30;3.10;;;;;;;19.96;55.05;101219.94;1769948;79;21054;-59
2021/08/13 06:07:55;;;;;;;7.92;3.15;;;;;;;20.00;55.12;101222.60;1726271;80;21070;-62
2021/08/13 06:10:22;;;;;;;7.37;3.25;;;;;;;20.08;54.83;101214.60;1785511;79;22310;-60
2021/08/13 06:12:51;;;;;;;6.45;3.17;;;;;;;20.17;54.54;101222.98;1765048;79;22691;-60
2021/08/13 06:15:18;;;;;;;25.15;5.20;;;;;;;20.25;54.20;101214.62;1789490;77;20981;-61
2021/08/13 06:17:45;;;;;;;8.25;3.10;;;;;;;20.32;54.08;101217.78;1788480;79;21272;-61
2021/08/13 06:20:15;;;;;;;6.05;3.10;;;;;;;20.37;53.48;101214.11;1793345;79;21121;-62
2021/08/13 06:22:42;;;;;;;7.15;3.12;;;;;;;20.41;53.80;101218.14;1794074;78;21857;-62
2021/08/13 06:25:10;;;;;;;7.60;3.27;;;;;;;20.48;53.20;101212.95;1788422;78;20992;-63
2021/08/13 06:27:42;;;;;;;11.70;3.10;;;;;;;20.50;53.24;101220.30;1791254;79;21053;-62
2021/08/13 06:30:11;;;;;;;6.83;3.10;;;;;;;20.52;53.21;101215.62;1786215;79;21112;-65
2021/08/13 06:32:38;;;;;;;6.47;2.40;;;;;;;20.54;53.03;101224.33;1772007;79;21046;-64
2021/08/13 06:35:06;;;;;;;6.72;2.62;;;;;;;20.57;53.30;101220.47;1774226;79;21196;-61
2021/08/13 06:37:35;;;;;;;6.40;2.95;;;;;;;20.62;53.31;101219.97;1793001;79;21081;-60
2021/08/13 06:40:03;;;;;;;6.62;2.70;;;;;;;20.68;53.07;101217.48;1743048;79;21483;-60
2021/08/13 06:42:30;;;;;;;5.33;2.60;;;;;;;20.75;53.30;101215.80;1790354;77;21098;-65
2021/08/13 06:44:58;;;;;;;10.10;2.92;;;;;;;20.80;53.07;101215.81;1787358;79;21095;-61
2021/08/13 06:47:26;;;;;;;5.20;2.47;;;;;;;20.83;52.85;101213.63;1787647;79;21903;-63
2021/08/13 06:49:53;;;;;;;7.83;2.85;;;;;;;20.87;53.07;101214.94;1790479;79;21098;-63
2021/08/13 06:52:20;;;;;;;5.60;2.47;;;;;;;20.95;53.27;101210.09;1784803;78;21136;-61
2021/08/13 06:54:46;;;;;;;7.53;3.20;;;;;;;21.05;52.74;101207.23;1792043;79;21107;-63
2021/08/13 06:57:12;;;;;;;7.47;2.25;;;;;;;21.10;52.97;101203.02;1764052;79;21466;-61
2021/08/13 06:59:39;;;;;;;7.85;3.08;;;;;;;21.14;52.05;101204.33;1723994;81;21134;-61
2021/08/13 07:02:06;;;;;;;6.70;2.40;;;;;;;21.18;52.57;101211.50;1787384;79;21487;-63
2021/08/13 07:04:34;;;;;;;8.38;2.92;;;;;;;21.22;51.82;101211.51;1792624;79;20995;-63
2021/08/13 07:07:00;;;;;;;6.28;2.72;;;;;;;21.27;51.55;101211.00;1774815;78;21556;-60
2021/08/13 07:09:27;;;;;;;6.90;2.50;;;;;;;21.31;51.78;101214.98;1790744;78;21046;-63
2021/08/13 07:11:54;;;;;;;5.85;2.60;;;;;;;21.37;52.07;101220.99;1795029;79;21195;-62
2021/08/13 07:14:21;;;;;;;6.47;2.67;;;;;;;21.43;52.08;101220.80;1789949;79;21281;-63
2021/08/13 07:16:47;;;;;;;6.72;3.08;;;;;;;21.50;51.97;101219.11;1788964;78;21557;-62
2021/08/13 07:19:14;;;;;;;6.15;2.62;;;;;;;21.59;51.84;101223.95;1783766;79;21034;-62
2021/08/13 07:21:42;;;;;;;6.58;2.65;;;;;;;21.68;51.29;101218.34;1769239;79;21509;-62
2021/08/13 07:24:10;;;;;;;7.62;2.75;;;;;;;21.76;51.26;101215.31;1770615;78;21166;-63
2021/08/13 07:26:37;;;;;;;6.35;2.90;;;;;;;21.80;51.14;101213.42;1791173;77;21038;-60
2021/08/13 07:29:05;;;;;;;7.53;2.58;;;;;;;21.87;51.48;101223.79;1791997;79;21320;-61
2021/08/13 07:31:32;;;;;;;6.70;2.92;;;;;;;21.95;49.73;101219.38;1791483;79;21030;-61
2021/08/13 07:34:01;;;;;;;4.95;2.60;;;;;;;22.00;50.25;101219.16;1771505;79;21125;-61
2021/08/13 07:36:28;;;;;;;6.47;2.40;;;;;;;22.08;50.64;101213.75;1790109;78;21136;-63
2021/08/13 07:38:56;;;;;;;7.50;2.92;;;;;;;22.17;51.27;101208.34;1791827;77;21065;-62
2021/08/13 07:41:24;;;;;;;5.47;2.70;;;;;;;22.25;49.70;101214.46;1798492;78;21062;-61
2021/08/13 07:43:50;;;;;;;7.15;2.47;;;;;;;22.29;49.62;101206.92;1790193;78;21011;-62
2021/08/13 07:46:17;;;;;;;5.62;2.58;;;;;;;22.31;49.39;101207.59;1771039;78;21015;-62
2021/08/13 07:48:44;;;;;;;6.12;2.22;;;;;;;22.39;49.18;101216.92;1786199;79;21702;-64
2021/08/13 07:51:11;;;;;;;5.03;2.10;;;;;;;22.48;48.47;101219.50;1775197;79;21070;-62
2021/08/13 07:53:37;;;;;;;5.20;2.10;;;;;;;22.53;47.96;101205.08;1787640;78;21563;-63
2021/08/13 07:56:05;;;;;;;5.20;2.05;;;;;;;22.54;47.01;101206.72;1774734;77;21113;-64
2021/08/13 07:58:32;;;;;;;7.25;2.27;;;;;;;22.56;46.93;101208.70;1797510;79;20991;-62
2021/08/13 08:00:59;;;;;;;6.47;2.30;;;;;;;22.55;47.52;101211.08;1795576;79;21074;-61
2021/08/13 08:03:25;;;;;;;6.78;2.58;;;;;;;22.56;46.98;101210.91;1789659;79;21027;-61
2021/08/13 08:05:53;;;;;;;5.72;2.52;;;;;;;22.60;46.94;101203.32;1789940;79;21337;-62
2021/08/13 08:08:19;;;;;;;6.58;2.15;;;;;;;22.64;46.65;101209.98;1781560;79;21102;-60
2021/08/13 08:10:47;;;;;;;7.60;2.40;;;;;;;22.67;46.79;101208.27;1768727;79;21047;-62
2021/08/13 08:13:16;;;;;;;4.85;2.42;;;;;;;22.71;47.65;101210.94;1791114;77;21883;-60
2021/08/13 08:15:42;;;;;;;5.30;2.25;;;;;;;22.79;47.42;101210.00;1773817;79;21065;-63
2021/08/13 08:18:08;;;;;;;4.72;2.02;;;;;;;22.86;47.10;101202.05;1774397;79;21093;-63
2021/08/13 08:20:36;;;;;;;6.10;2.58;;;;;;;22.90;46.15;101204.71;1769898;79;21471;-64
2021/08/13 08:23:02;;;;;;;5.30;2.27;;;;;;;22.94;46.97;101205.99;1790592;78;21588;-64
2021/08/13 08:25:29;;;;;;;7.78;2.00;;;;;;;22.98;46.45;101200.56;1791966;79;22358;-63
2021/08/13 08:27:56;;;;;;;6.12;2.17;;;;;;;23.03;46.38;101199.50;1762066;79;21078;-63
2021/08/13 08:30:22;;;;;;;4.83;2.12;;;;;;;23.09;46.13;101204.17;1791780;77;20984;-58
2021/08/13 08:32:49;;;;;;;6.15;2.37;;;;;;;23.11;45.75;101198.62;1755932;79;21055;-63
2021/08/13 08:35:15;;;;;;;5.10;2.10;;;;;;;23.12;46.35;101205.14;1793578;79;21113;-62
2021/08/13 08:37:51;;;;;;;6.10;2.55;;;;;;;23.13;45.79;101208.66;1794118;79;23161;-63
2021/08/13 08:40:22;;;;;;;5.58;2.50;;;;;;;23.13;45.92;101208.17;1792986;79;21698;-63
2021/08/13 08:42:52;;;;;;;5.12;2.10;;;;;;;23.18;45.24;101207.09;1795457;79;21094;-63
2021/08/13 08:45:19;;;;;;;6.90;2.58;;;;;;;23.22;45.30;101206.22;1767920;79;21031;-64
2021/08/13 08:47:45;;;;;;;5.30;2.00;;;;;;;23.27;45.94;101207.83;1772517;78;21133;-63
2021/08/13 08:50:11;;;;;;;4.60;2.17;;;;;;;23.37;46.51;101208.89;1785275;78;23286;-61
2021/08/13 08:52:38;;;;;;;6.87;2.52;;;;;;;23.47;46.53;101203.20;1728540;79;21062;-59
2021/08/13 08:55:07;;;;;;;4.50;2.20;;;;;;;23.54;45.12;101204.13;1791785;78;21065;-63
2021/08/13 08:57:34;;;;;;;6.08;2.50;;;;;;;23.57;45.36;101201.08;1786924;79;21066;-62
2021/08/13 09:00:00;;;;;;;5.85;2.83;;;;;;;23.62;45.01;101198.66;1779836;79;21070;-63
2021/08/13 09:02:26;;;;;;;5.65;2.37;;;;;;;23.70;45.56;101205.75;1791537;79;22454;-63
2021/08/13 09:04:56;;;;;;;5.17;2.40;;;;;;;23.80;44.94;101206.79;1767056;78;21048;-61
2021/08/13 09:07:27;;;;;;;7.28;2.02;;;;;;;23.86;43.99;101200.17;1792893;79;21109;-61
2021/08/13 09:09:54;;;;;;;5.83;2.40;;;;;;;23.90;43.81;101191.22;1796488;79;21029;-61
2021/08/13 09:12:21;;;;;;;8.65;2.70;;;;;;;23.98;44.30;101195.12;1758380;79;22280;-62
2021/08/13 09:14:47;;;;;;;7.12;3.27;;;;;;;24.04;44.46;101191.68;1730014;82;21119;-62
2021/08/13 09:17:16;;;;;;;6.28;2.83;;;;;;;24.16;43.77;101197.38;1794196;79;21034;-63
2021/08/13 09:19:48;;;;;;;8.15;2.52;;;;;;;24.22;43.54;101199.27;1791952;79;21065;-62
2021/08/13 09:22:19;;;;;;;5.95;2.67;;;;;;;24.25;43.10;101192.17;1793138;78;21003;-64
2021/08/13 09:24:49;;;;;;;5.17;2.40;;;;;;;24.31;43.24;101193.27;1794925;79;21537;-62
2021/08/13 09:27:29;;;;;;;5.42;2.60;;;;;;;24.36;43.69;101197.55;1789863;78;23270;-63
2021/08/13 09:30:14;;;;;;;6.37;2.30;;;;;;;24.42;43.22;101192.72;1789170;78;21474;-63
2021/08/13 09:32:48;;;;;;;4.78;2.37;;;;;;;24.42;42.35;101195.41;1792547;78;21030;-63
2021/08/13 09:35:15;;;;;;;4.72;2.22;;;;;;;24.42;42.92;101193.24;1794519;78;21109;-64
2021/08/13 09:37:43;;;;;;;6.87;2.40;;;;;;;24.46;43.74;101193.16;1800840;78;21042;-63
2021/08/13 09:40:16;;;;;;;6.95;2.65;;;;;;;24.55;42.85;101193.91;1790920;79;22529;-62
2021/08/13 09:42:42;;;;;;;4.85;2.05;;;;;;;24.62;42.69;101186.17;1768367;79;21069;-63
2021/08/13 09:45:10;;;;;;;5.10;2.33;;;;;;;24.63;42.27;101187.85;1776506;79;21042;-63
2021/08/13 09:47:44;;;;;;;5.10;2.35;;;;;;;24.60;42.29;101182.86;1799698;78;21038;-62
2021/08/13 09:50:14;;;;;;;5.47;2.30;;;;;;;24.60;42.70;101188.23;1802602;77;21062;-63
2021/08/13 09:52:41;;;;;;;6.37;2.50;;;;;;;24.61;42.76;101193.95;1798832;78;21332;-63
2021/08/13 09:55:15;;;;;;;4.92;2.42;;;;;;;24.67;42.18;101195.02;1770873;77;21366;-62
2021/08/13 09:57:46;;;;;;;6.72;2.45;;;;;;;24.72;42.89;101192.56;1771080;78;22281;-62
2021/08/13 10:00:15;;;;;;;4.53;2.05;;;;;;;24.76;41.79;101198.38;1803074;78;21090;-64
2021/08/13 10:02:43;;;;;;;4.85;2.15;;;;;;;24.81;40.93;101200.81;1776761;78;21097;-64
2021/08/13 10:05:28;;;;;;;5.25;2.52;;;;;;;24.89;40.44;101195.77;1797312;79;21423;-64
2021/08/13 10:08:00;;;;;;;4.53;2.12;;;;;;;25.01;40.09;101199.56;1769319;79;21097;-65
2021/08/13 10:10:30;;;;;;;4.60;2.17;;;;;;;25.14;39.50;101202.03;1769691;78;21081;-64
2021/08/13 10:13:00;;;;;;;3.75;1.72;;;;;;;25.19;39.50;101192.84;1767514;79;21070;-65
2021/08/13 10:15:37;;;;;;;5.65;2.75;;;;;;;25.26;39.30;101188.83;1799246;78;21008;-65
2021/08/13 10:18:13;;;;;;;5.10;2.27;;;;;;;25.32;39.98;101185.38;1773054;78;21247;-63
2021/08/13 10:20:53;;;;;;;4.03;1.80;;;;;;;25.33;39.80;101185.14;1798153;77;21042;-64
2021/08/13 10:23:17;;;;;;;5.50;2.15;;;;;;;25.27;40.15;101185.97;1799203;79;21621;-63
2021/08/13 10:25:44;;;;;;;6.33;1.90;;;;;;;25.21;39.50;101190.77;1772633;79;21007;-66
2021/08/13 10:28:12;;;;;;;5.53;1.85;;;;;;;25.19;39.91;101188.27;1776760;78;21130;-63
2021/08/13 10:30:41;;;;;;;6.15;2.22;;;;;;;25.25;40.14;101188.50;1802924;77;21070;-64
2021/08/13 10:33:08;;;;;;;5.30;2.27;;;;;;;25.34;39.19;101184.65;1703949;82;21012;-64
2021/08/13 10:35:51;;;;;;;5.92;1.70;;;;;;;25.42;39.15;101184.97;1803255;78;21089;-65
2021/08/13 10:38:21;;;;;;;4.60;2.08;;;;;;;25.46;38.81;101190.29;1797932;78;21054;-64
2021/08/13 10:40:49;;;;;;;4.65;1.75;;;;;;;25.49;39.08;101185.33;1803799;78;21045;-64
2021/08/13 10:43:16;;;;;;;6.33;1.77;;;;;;;25.53;38.93;101179.83;1807254;78;20963;-64
2021/08/13 10:45:43;;;;;;;5.35;2.62;;;;;;;25.60;39.92;101182.55;1803949;78;21524;-65
2021/08/13 10:48:14;;;;;;;5.87;2.20;;;;;;;25.71;38.96;101185.19;1780742;78;21002;-64
2021/08/13 10:50:40;;;;;;;4.40;2.17;;;;;;;25.77;38.78;101179.81;1797994;77;21125;-64
2021/08/13 10:53:30;;;;;;;6.53;2.08;;;;;;;25.81;38.55;101172.67;1800624;78;21105;-63
2021/08/13 10:56:03;;;;;;;6.50;2.27;;;;;;;25.86;39.64;101176.92;1778926;77;21050;-63
2021/08/13 10:58:44;;;;;;;5.10;2.58;;;;;;;25.90;38.53;101180.86;1807518;78;21085;-64
2021/08/13 11:01:21;;;;;;;4.55;2.08;;;;;;;25.94;38.13;101180.75;1802801;78;21601;-64
2021/08/13 11:04:01;;;;;;;5.08;1.87;;;;;;;25.99;37.58;101186.41;1802932;78;21066;-63
2021/08/13 11:06:41;;;;;;;7.15;2.27;;;;;;;26.05;37.54;101177.48;1804105;78;21464;-64
2021/08/13 11:09:22;;;;;;;4.08;1.85;;;;;;;26.11;37.11;101177.20;1801902;78;21264;-65
2021/08/13 11:11:59;;;;;;;5.35;2.17;;;;;;;26.19;37.60;101173.45;1805417;78;21603;-62
2021/08/13 11:14:32;;;;;;;6.80;2.40;;;;;;;26.25;37.69;101178.84;1805142;77;21026;-63
2021/08/13 11:16:59;;;;;;;5.10;2.27;;;;;;;26.33;37.33;101180.52;1807177;78;21034;-61
2021/08/13 11:19:27;;;;;;;4.90;2.08;;;;;;;26.40;36.20;101173.77;1805204;77;21524;-64
2021/08/13 11:22:00;;;;;;;4.83;2.02;;;;;;;26.44;36.35;101175.00;1811231;77;21119;-63
2021/08/13 11:24:52;;;;;;;5.37;1.72;;;;;;;26.43;36.96;101178.75;1804662;78;21094;-64
2021/08/13 11:27:20;;;;;;;4.92;2.33;;;;;;;26.45;37.14;101178.02;1808136;77;22095;-60
2021/08/13 11:29:48;;;;;;;5.25;2.05;;;;;;;26.58;37.40;101178.00;1802839;78;21117;-62
2021/08/13 11:32:26;;;;;;;4.47;2.00;;;;;;;26.73;36.84;101176.46;1801002;78;21101;-64
2021/08/13 11:35:04;;;;;;;5.58;1.98;;;;;;;26.85;36.20;101172.06;1801738;77;21140;-66
2021/08/13 11:37:41;;;;;;;9.80;3.12;;;;;;;26.97;36.25;101174.94;1781366;78;21533;-61